Terminal Aerodrome Forecast
Issued by NWS

Home | Current Version | Previous Version | Text Only | Print | Product List | Glossary On
Versions: 1 2 3 4 5 6 7 8 9 10 11 12 13 14 15 16
000
FTUS44 KJAN 242300
TAFHKS
TAF
KHKS 242320Z 2500/2524 18010KT P6SM VCTS SCT050CB BKN250
     FM250400 19010G17KT P6SM BKN100
     FM250600 26006KT P6SM OVC015
     FM251100 28003KT 6SM BR OVC050
     FM251300 33006KT P6SM SCT250=

USA.gov is the U.S. government's official web portal to all federal, state and local government web resources and services.